sensor_id;sensor_type;location;lat;lon;timestamp;P1;durP1;ratioP1;P2;durP2;ratioP2
53056;SDS011;38940;50.096;4.012;2022-08-19T00:00:07;32.58;;;13.25;;
53056;SDS011;38940;50.096;4.012;2022-08-19T00:02:34;34.47;;;14.93;;
53056;SDS011;38940;50.096;4.012;2022-08-19T00:05:00;33.60;;;14.50;;
53056;SDS011;38940;50.096;4.012;2022-08-19T00:07:27;34.45;;;14.45;;
53056;SDS011;38940;50.096;4.012;2022-08-19T00:09:53;36.92;;;14.65;;
53056;SDS011;38940;50.096;4.012;2022-08-19T00:12:19;40.63;;;13.82;;
53056;SDS011;38940;50.096;4.012;2022-08-19T00:14:45;35.63;;;15.00;;
53056;SDS011;38940;50.096;4.012;2022-08-19T00:17:11;32.58;;;13.75;;
53056;SDS011;38940;50.096;4.012;2022-08-19T00:19:38;43.58;;;14.70;;
53056;SDS011;38940;50.096;4.012;2022-08-19T00:22:05;33.53;;;13.45;;
53056;SDS011;38940;50.096;4.012;2022-08-19T00:24:33;37.28;;;13.60;;
53056;SDS011;38940;50.096;4.012;2022-08-19T00:27:00;34.40;;;13.10;;
53056;SDS011;38940;50.096;4.012;2022-08-19T00:29:27;38.75;;;15.40;;
53056;SDS011;38940;50.096;4.012;2022-08-19T00:31:53;48.50;;;15.85;;
53056;SDS011;38940;50.096;4.012;2022-08-19T00:34:21;31.08;;;13.75;;
53056;SDS011;38940;50.096;4.012;2022-08-19T00:36:47;32.63;;;14.02;;
53056;SDS011;38940;50.096;4.012;2022-08-19T00:39:14;37.17;;;14.82;;
53056;SDS011;38940;50.096;4.012;2022-08-19T00:41:41;42.95;;;14.73;;
53056;SDS011;38940;50.096;4.012;2022-08-19T00:46:34;34.47;;;15.15;;
53056;SDS011;38940;50.096;4.012;2022-08-19T00:49:06;40.35;;;15.82;;
53056;SDS011;38940;50.096;4.012;2022-08-19T00:51:35;42.72;;;15.63;;
53056;SDS011;38940;50.096;4.012;2022-08-19T00:54:01;34.55;;;15.02;;
53056;SDS011;38940;50.096;4.012;2022-08-19T00:56:28;37.97;;;15.68;;
53056;SDS011;38940;50.096;4.012;2022-08-19T00:58:56;44.25;;;15.50;;
53056;SDS011;38940;50.096;4.012;2022-08-19T01:01:24;34.45;;;13.85;;
53056;SDS011;38940;50.096;4.012;2022-08-19T01:03:50;35.25;;;13.57;;
53056;SDS011;38940;50.096;4.012;2022-08-19T01:06:16;38.22;;;13.00;;
53056;SDS011;38940;50.096;4.012;2022-08-19T01:08:42;33.22;;;14.23;;
53056;SDS011;38940;50.096;4.012;2022-08-19T01:11:08;37.17;;;12.65;;
53056;SDS011;38940;50.096;4.012;2022-08-19T01:13:34;32.00;;;12.73;;
53056;SDS011;38940;50.096;4.012;2022-08-19T01:16:05;31.60;;;13.13;;
53056;SDS011;38940;50.096;4.012;2022-08-19T01:18:32;36.25;;;14.15;;
53056;SDS011;38940;50.096;4.012;2022-08-19T01:21:02;29.80;;;12.35;;
53056;SDS011;38940;50.096;4.012;2022-08-19T01:23:30;33.47;;;13.07;;
53056;SDS011;38940;50.096;4.012;2022-08-19T01:26:09;20.90;;;10.77;;
53056;SDS011;38940;50.096;4.012;2022-08-19T01:28:36;21.38;;;9.93;;
53056;SDS011;38940;50.096;4.012;2022-08-19T01:31:03;24.17;;;9.25;;
53056;SDS011;38940;50.096;4.012;2022-08-19T01:33:29;24.60;;;9.10;;
53056;SDS011;38940;50.096;4.012;2022-08-19T01:36:22;22.15;;;9.60;;
53056;SDS011;38940;50.096;4.012;2022-08-19T01:38:42;23.33;;;8.65;;
53056;SDS011;38940;50.096;4.012;2022-08-19T01:41:12;17.10;;;8.35;;
53056;SDS011;38940;50.096;4.012;2022-08-19T01:43:39;16.42;;;8.98;;
53056;SDS011;38940;50.096;4.012;2022-08-19T01:46:05;16.42;;;7.00;;
53056;SDS011;38940;50.096;4.012;2022-08-19T01:48:38;17.33;;;7.57;;
53056;SDS011;38940;50.096;4.012;2022-08-19T01:51:04;18.85;;;7.72;;
53056;SDS011;38940;50.096;4.012;2022-08-19T01:53:30;23.60;;;7.47;;
53056;SDS011;38940;50.096;4.012;2022-08-19T01:55:57;16.23;;;7.30;;
53056;SDS011;38940;50.096;4.012;2022-08-19T01:58:24;19.77;;;7.40;;
53056;SDS011;38940;50.096;4.012;2022-08-19T02:00:55;18.60;;;8.32;;
53056;SDS011;38940;50.096;4.012;2022-08-19T02:03:21;19.45;;;8.27;;
53056;SDS011;38940;50.096;4.012;2022-08-19T02:05:48;19.50;;;7.70;;
53056;SDS011;38940;50.096;4.012;2022-08-19T02:08:15;16.77;;;7.78;;
53056;SDS011;38940;50.096;4.012;2022-08-19T02:10:42;20.23;;;7.45;;
53056;SDS011;38940;50.096;4.012;2022-08-19T02:13:09;19.40;;;8.00;;
53056;SDS011;38940;50.096;4.012;2022-08-19T02:15:35;15.80;;;7.72;;
53056;SDS011;38940;50.096;4.012;2022-08-19T02:18:02;17.77;;;7.80;;
53056;SDS011;38940;50.096;4.012;2022-08-19T02:20:28;16.75;;;6.97;;
53056;SDS011;38940;50.096;4.012;2022-08-19T02:22:54;18.42;;;7.53;;
53056;SDS011;38940;50.096;4.012;2022-08-19T02:25:20;18.30;;;8.25;;
53056;SDS011;38940;50.096;4.012;2022-08-19T02:27:46;16.90;;;6.82;;
53056;SDS011;38940;50.096;4.012;2022-08-19T02:30:13;14.65;;;6.38;;
53056;SDS011;38940;50.096;4.012;2022-08-19T02:32:40;12.65;;;6.05;;
53056;SDS011;38940;50.096;4.012;2022-08-19T02:35:07;10.90;;;6.05;;
53056;SDS011;38940;50.096;4.012;2022-08-19T02:37:33;11.85;;;6.05;;
53056;SDS011;38940;50.096;4.012;2022-08-19T02:40:18;17.60;;;6.00;;
53056;SDS011;38940;50.096;4.012;2022-08-19T02:42:45;12.40;;;5.40;;
53056;SDS011;38940;50.096;4.012;2022-08-19T02:45:11;16.60;;;6.63;;
53056;SDS011;38940;50.096;4.012;2022-08-19T02:47:38;13.88;;;5.70;;
53056;SDS011;38940;50.096;4.012;2022-08-19T02:50:04;15.98;;;6.28;;
53056;SDS011;38940;50.096;4.012;2022-08-19T02:52:32;21.65;;;7.03;;
53056;SDS011;38940;50.096;4.012;2022-08-19T02:54:58;15.93;;;6.65;;
53056;SDS011;38940;50.096;4.012;2022-08-19T02:57:24;12.77;;;5.53;;
53056;SDS011;38940;50.096;4.012;2022-08-19T02:59:50;30.63;;;7.05;;
53056;SDS011;38940;50.096;4.012;2022-08-19T03:02:16;10.77;;;5.43;;
53056;SDS011;38940;50.096;4.012;2022-08-19T03:04:42;15.00;;;6.13;;
53056;SDS011;38940;50.096;4.012;2022-08-19T03:07:08;14.18;;;5.75;;
53056;SDS011;38940;50.096;4.012;2022-08-19T03:09:36;16.65;;;5.97;;
53056;SDS011;38940;50.096;4.012;2022-08-19T03:12:03;15.05;;;6.20;;
53056;SDS011;38940;50.096;4.012;2022-08-19T03:14:32;11.07;;;5.72;;
53056;SDS011;38940;50.096;4.012;2022-08-19T03:16:59;13.18;;;5.45;;
53056;SDS011;38940;50.096;4.012;2022-08-19T03:19:26;21.85;;;5.82;;
53056;SDS011;38940;50.096;4.012;2022-08-19T03:21:52;17.55;;;5.10;;
53056;SDS011;38940;50.096;4.012;2022-08-19T03:24:20;15.52;;;7.03;;
53056;SDS011;38940;50.096;4.012;2022-08-19T03:26:48;11.38;;;5.28;;
53056;SDS011;38940;50.096;4.012;2022-08-19T03:29:15;14.20;;;5.75;;
53056;SDS011;38940;50.096;4.012;2022-08-19T03:31:42;15.90;;;7.05;;
53056;SDS011;38940;50.096;4.012;2022-08-19T03:34:08;13.85;;;5.63;;
53056;SDS011;38940;50.096;4.012;2022-08-19T03:36:36;10.07;;;5.18;;
53056;SDS011;38940;50.096;4.012;2022-08-19T03:39:03;9.13;;;5.40;;
53056;SDS011;38940;50.096;4.012;2022-08-19T03:41:31;23.70;;;5.10;;
53056;SDS011;38940;50.096;4.012;2022-08-19T03:43:58;10.40;;;4.28;;
53056;SDS011;38940;50.096;4.012;2022-08-19T03:46:25;7.60;;;4.45;;
53056;SDS011;38940;50.096;4.012;2022-08-19T03:48:53;10.07;;;4.20;;
53056;SDS011;38940;50.096;4.012;2022-08-19T03:51:22;11.68;;;5.15;;
53056;SDS011;38940;50.096;4.012;2022-08-19T03:53:49;15.15;;;5.35;;
53056;SDS011;38940;50.096;4.012;2022-08-19T03:56:16;8.88;;;4.13;;
53056;SDS011;38940;50.096;4.012;2022-08-19T03:58:42;10.07;;;4.22;;
53056;SDS011;38940;50.096;4.012;2022-08-19T04:01:09;12.43;;;4.93;;
53056;SDS011;38940;50.096;4.012;2022-08-19T04:03:36;5.72;;;3.53;;
53056;SDS011;38940;50.096;4.012;2022-08-19T04:08:37;12.60;;;4.65;;
53056;SDS011;38940;50.096;4.012;2022-08-19T04:11:06;6.38;;;3.65;;
53056;SDS011;38940;50.096;4.012;2022-08-19T04:13:32;7.22;;;4.22;;
53056;SDS011;38940;50.096;4.012;2022-08-19T04:15:59;15.13;;;3.97;;
53056;SDS011;38940;50.096;4.012;2022-08-19T04:18:25;6.53;;;3.05;;
53056;SDS011;38940;50.096;4.012;2022-08-19T04:20:54;7.10;;;3.30;;
53056;SDS011;38940;50.096;4.012;2022-08-19T04:23:20;12.63;;;3.65;;
53056;SDS011;38940;50.096;4.012;2022-08-19T04:25:46;6.05;;;3.47;;
53056;SDS011;38940;50.096;4.012;2022-08-19T04:28:13;5.35;;;3.25;;
53056;SDS011;38940;50.096;4.012;2022-08-19T04:30:45;8.27;;;3.17;;
53056;SDS011;38940;50.096;4.012;2022-08-19T04:33:15;10.45;;;3.92;;
53056;SDS011;38940;50.096;4.012;2022-08-19T04:35:43;20.90;;;4.40;;
53056;SDS011;38940;50.096;4.012;2022-08-19T04:38:10;12.48;;;3.50;;
53056;SDS011;38940;50.096;4.012;2022-08-19T04:40:40;7.82;;;3.20;;
53056;SDS011;38940;50.096;4.012;2022-08-19T04:43:24;8.13;;;3.67;;
53056;SDS011;38940;50.096;4.012;2022-08-19T04:45:50;8.73;;;3.67;;
53056;SDS011;38940;50.096;4.012;2022-08-19T04:48:17;6.78;;;3.15;;
53056;SDS011;38940;50.096;4.012;2022-08-19T04:50:51;4.07;;;2.40;;
53056;SDS011;38940;50.096;4.012;2022-08-19T04:53:21;7.70;;;3.55;;
53056;SDS011;38940;50.096;4.012;2022-08-19T04:55:47;15.63;;;3.47;;
53056;SDS011;38940;50.096;4.012;2022-08-19T04:58:13;6.13;;;3.28;;
53056;SDS011;38940;50.096;4.012;2022-08-19T05:00:41;12.10;;;4.03;;
53056;SDS011;38940;50.096;4.012;2022-08-19T05:03:07;8.98;;;2.88;;
53056;SDS011;38940;50.096;4.012;2022-08-19T05:05:33;12.43;;;3.40;;
53056;SDS011;38940;50.096;4.012;2022-08-19T05:07:59;8.05;;;3.35;;
53056;SDS011;38940;50.096;4.012;2022-08-19T05:10:25;5.55;;;2.97;;
53056;SDS011;38940;50.096;4.012;2022-08-19T05:12:51;5.63;;;2.65;;
53056;SDS011;38940;50.096;4.012;2022-08-19T05:15:17;7.95;;;3.33;;
53056;SDS011;38940;50.096;4.012;2022-08-19T05:17:44;12.43;;;2.80;;
53056;SDS011;38940;50.096;4.012;2022-08-19T05:20:30;4.53;;;2.30;;
53056;SDS011;38940;50.096;4.012;2022-08-19T05:23:14;5.63;;;2.92;;
53056;SDS011;38940;50.096;4.012;2022-08-19T05:25:42;4.97;;;2.65;;
53056;SDS011;38940;50.096;4.012;2022-08-19T05:28:08;9.55;;;4.28;;
53056;SDS011;38940;50.096;4.012;2022-08-19T05:30:34;7.10;;;3.40;;
53056;SDS011;38940;50.096;4.012;2022-08-19T05:33:00;10.30;;;2.60;;
53056;SDS011;38940;50.096;4.012;2022-08-19T05:35:26;5.47;;;2.65;;
53056;SDS011;38940;50.096;4.012;2022-08-19T05:37:53;5.90;;;3.10;;
53056;SDS011;38940;50.096;4.012;2022-08-19T05:40:19;4.05;;;2.42;;
53056;SDS011;38940;50.096;4.012;2022-08-19T05:42:45;14.18;;;2.88;;
53056;SDS011;38940;50.096;4.012;2022-08-19T05:45:11;8.20;;;2.95;;
53056;SDS011;38940;50.096;4.012;2022-08-19T05:47:37;7.47;;;3.25;;
53056;SDS011;38940;50.096;4.012;2022-08-19T05:50:03;6.32;;;3.35;;
53056;SDS011;38940;50.096;4.012;2022-08-19T05:52:30;9.13;;;3.22;;
53056;SDS011;38940;50.096;4.012;2022-08-19T05:54:56;4.50;;;2.65;;
53056;SDS011;38940;50.096;4.012;2022-08-19T05:57:23;6.35;;;2.92;;
53056;SDS011;38940;50.096;4.012;2022-08-19T05:59:49;4.50;;;2.38;;
53056;SDS011;38940;50.096;4.012;2022-08-19T06:02:16;7.15;;;3.20;;
53056;SDS011;38940;50.096;4.012;2022-08-19T06:04:42;7.28;;;3.47;;
53056;SDS011;38940;50.096;4.012;2022-08-19T06:07:08;5.57;;;2.67;;
53056;SDS011;38940;50.096;4.012;2022-08-19T06:09:34;6.65;;;2.75;;
53056;SDS011;38940;50.096;4.012;2022-08-19T06:12:00;6.95;;;2.78;;
53056;SDS011;38940;50.096;4.012;2022-08-19T06:14:31;5.63;;;2.28;;
53056;SDS011;38940;50.096;4.012;2022-08-19T06:16:59;6.53;;;2.67;;
53056;SDS011;38940;50.096;4.012;2022-08-19T06:19:26;5.57;;;3.13;;
53056;SDS011;38940;50.096;4.012;2022-08-19T06:21:55;5.18;;;2.30;;
53056;SDS011;38940;50.096;4.012;2022-08-19T06:24:22;11.70;;;2.90;;
53056;SDS011;38940;50.096;4.012;2022-08-19T06:26:49;11.60;;;3.55;;
53056;SDS011;38940;50.096;4.012;2022-08-19T06:29:16;6.32;;;2.83;;
53056;SDS011;38940;50.096;4.012;2022-08-19T06:31:44;8.43;;;2.72;;
53056;SDS011;38940;50.096;4.012;2022-08-19T06:34:10;7.82;;;2.75;;
53056;SDS011;38940;50.096;4.012;2022-08-19T06:36:41;4.85;;;2.70;;
53056;SDS011;38940;50.096;4.012;2022-08-19T06:39:13;5.45;;;2.67;;
53056;SDS011;38940;50.096;4.012;2022-08-19T06:41:40;7.13;;;3.17;;
53056;SDS011;38940;50.096;4.012;2022-08-19T06:44:07;10.88;;;3.50;;
53056;SDS011;38940;50.096;4.012;2022-08-19T06:46:33;16.90;;;3.35;;
53056;SDS011;38940;50.096;4.012;2022-08-19T06:48:59;7.85;;;2.95;;
53056;SDS011;38940;50.096;4.012;2022-08-19T06:51:26;5.03;;;2.70;;
53056;SDS011;38940;50.096;4.012;2022-08-19T06:53:53;8.35;;;3.38;;
53056;SDS011;38940;50.096;4.012;2022-08-19T06:56:22;6.68;;;3.13;;
53056;SDS011;38940;50.096;4.012;2022-08-19T06:58:49;6.60;;;2.67;;
53056;SDS011;38940;50.096;4.012;2022-08-19T07:01:17;6.68;;;2.67;;
53056;SDS011;38940;50.096;4.012;2022-08-19T07:03:43;5.25;;;2.58;;
53056;SDS011;38940;50.096;4.012;2022-08-19T07:06:12;7.78;;;3.20;;
53056;SDS011;38940;50.096;4.012;2022-08-19T07:08:39;7.30;;;3.38;;
53056;SDS011;38940;50.096;4.012;2022-08-19T07:11:08;7.88;;;3.38;;
53056;SDS011;38940;50.096;4.012;2022-08-19T07:13:35;9.45;;;3.55;;
53056;SDS011;38940;50.096;4.012;2022-08-19T07:16:23;7.68;;;2.47;;
53056;SDS011;38940;50.096;4.012;2022-08-19T07:18:49;9.60;;;2.95;;
53056;SDS011;38940;50.096;4.012;2022-08-19T07:21:17;7.63;;;2.75;;
53056;SDS011;38940;50.096;4.012;2022-08-19T07:23:43;4.22;;;2.78;;
53056;SDS011;38940;50.096;4.012;2022-08-19T07:26:15;4.13;;;2.60;;
53056;SDS011;38940;50.096;4.012;2022-08-19T07:28:42;12.77;;;3.00;;
53056;SDS011;38940;50.096;4.012;2022-08-19T07:31:10;6.90;;;2.58;;
53056;SDS011;38940;50.096;4.012;2022-08-19T07:33:37;4.85;;;2.38;;
53056;SDS011;38940;50.096;4.012;2022-08-19T07:36:04;3.58;;;2.45;;
53056;SDS011;38940;50.096;4.012;2022-08-19T07:38:30;4.15;;;2.70;;
53056;SDS011;38940;50.096;4.012;2022-08-19T07:40:56;4.15;;;1.95;;
53056;SDS011;38940;50.096;4.012;2022-08-19T07:43:23;4.65;;;2.63;;
53056;SDS011;38940;50.096;4.012;2022-08-19T07:45:51;3.70;;;2.17;;
53056;SDS011;38940;50.096;4.012;2022-08-19T07:48:18;4.43;;;2.53;;
53056;SDS011;38940;50.096;4.012;2022-08-19T07:50:46;4.60;;;2.47;;
53056;SDS011;38940;50.096;4.012;2022-08-19T07:53:13;3.83;;;2.10;;
53056;SDS011;38940;50.096;4.012;2022-08-19T07:55:39;8.68;;;3.35;;
53056;SDS011;38940;50.096;4.012;2022-08-19T07:58:05;5.72;;;2.78;;
53056;SDS011;38940;50.096;4.012;2022-08-19T08:00:31;5.70;;;2.58;;
53056;SDS011;38940;50.096;4.012;2022-08-19T08:02:58;5.22;;;2.35;;
53056;SDS011;38940;50.096;4.012;2022-08-19T08:05:24;5.05;;;2.35;;
53056;SDS011;38940;50.096;4.012;2022-08-19T08:08:08;5.90;;;2.70;;
53056;SDS011;38940;50.096;4.012;2022-08-19T08:10:53;5.15;;;2.95;;
53056;SDS011;38940;50.096;4.012;2022-08-19T08:13:19;8.82;;;2.42;;
53056;SDS011;38940;50.096;4.012;2022-08-19T08:15:45;9.45;;;3.70;;
53056;SDS011;38940;50.096;4.012;2022-08-19T08:18:11;6.28;;;2.85;;
53056;SDS011;38940;50.096;4.012;2022-08-19T08:20:38;4.90;;;2.90;;
53056;SDS011;38940;50.096;4.012;2022-08-19T08:23:04;7.85;;;4.13;;
53056;SDS011;38940;50.096;4.012;2022-08-19T08:25:50;7.03;;;2.75;;
53056;SDS011;38940;50.096;4.012;2022-08-19T08:28:16;8.02;;;3.42;;
53056;SDS011;38940;50.096;4.012;2022-08-19T08:30:42;8.55;;;3.60;;
53056;SDS011;38940;50.096;4.012;2022-08-19T08:33:10;7.82;;;3.88;;
53056;SDS011;38940;50.096;4.012;2022-08-19T08:35:36;7.75;;;3.25;;
53056;SDS011;38940;50.096;4.012;2022-08-19T08:38:03;4.38;;;3.05;;
53056;SDS011;38940;50.096;4.012;2022-08-19T08:40:37;7.45;;;3.28;;
53056;SDS011;38940;50.096;4.012;2022-08-19T08:45:41;9.77;;;4.20;;
53056;SDS011;38940;50.096;4.012;2022-08-19T08:48:19;4.95;;;3.15;;
53056;SDS011;38940;50.096;4.012;2022-08-19T08:50:46;5.65;;;4.07;;
53056;SDS011;38940;50.096;4.012;2022-08-19T08:53:18;12.63;;;4.47;;
53056;SDS011;38940;50.096;4.012;2022-08-19T08:55:45;12.80;;;4.13;;
53056;SDS011;38940;50.096;4.012;2022-08-19T08:58:36;7.15;;;4.10;;
53056;SDS011;38940;50.096;4.012;2022-08-19T09:00:58;12.15;;;4.55;;
53056;SDS011;38940;50.096;4.012;2022-08-19T09:03:26;12.02;;;5.03;;
53056;SDS011;38940;50.096;4.012;2022-08-19T09:06:00;10.63;;;4.65;;
53056;SDS011;38940;50.096;4.012;2022-08-19T09:10:59;10.15;;;3.95;;
53056;SDS011;38940;50.096;4.012;2022-08-19T09:15:57;15.98;;;4.47;;
53056;SDS011;38940;50.096;4.012;2022-08-19T09:18:24;13.32;;;4.43;;
53056;SDS011;38940;50.096;4.012;2022-08-19T09:20:50;9.57;;;4.45;;
53056;SDS011;38940;50.096;4.012;2022-08-19T09:23:17;14.85;;;4.20;;
53056;SDS011;38940;50.096;4.012;2022-08-19T09:25:43;8.55;;;4.70;;
53056;SDS011;38940;50.096;4.012;2022-08-19T09:28:09;11.70;;;4.25;;
53056;SDS011;38940;50.096;4.012;2022-08-19T09:30:39;6.50;;;4.07;;
53056;SDS011;38940;50.096;4.012;2022-08-19T09:33:06;7.40;;;4.45;;
53056;SDS011;38940;50.096;4.012;2022-08-19T09:35:32;11.98;;;4.63;;
53056;SDS011;38940;50.096;4.012;2022-08-19T09:38:00;9.13;;;4.80;;
53056;SDS011;38940;50.096;4.012;2022-08-19T09:40:27;13.65;;;5.25;;
53056;SDS011;38940;50.096;4.012;2022-08-19T09:42:53;6.57;;;4.20;;
53056;SDS011;38940;50.096;4.012;2022-08-19T09:45:21;9.65;;;4.72;;
53056;SDS011;38940;50.096;4.012;2022-08-19T09:47:48;14.45;;;4.75;;
53056;SDS011;38940;50.096;4.012;2022-08-19T09:50:15;7.07;;;4.00;;
53056;SDS011;38940;50.096;4.012;2022-08-19T09:52:43;15.45;;;4.10;;
53056;SDS011;38940;50.096;4.012;2022-08-19T09:55:09;7.10;;;4.45;;
53056;SDS011;38940;50.096;4.012;2022-08-19T09:57:36;8.02;;;3.65;;
53056;SDS011;38940;50.096;4.012;2022-08-19T10:00:07;11.75;;;3.50;;
53056;SDS011;38940;50.096;4.012;2022-08-19T10:02:34;6.75;;;3.22;;
53056;SDS011;38940;50.096;4.012;2022-08-19T10:05:00;6.97;;;3.75;;
53056;SDS011;38940;50.096;4.012;2022-08-19T10:07:45;9.27;;;4.05;;
53056;SDS011;38940;50.096;4.012;2022-08-19T10:10:11;15.02;;;4.97;;
53056;SDS011;38940;50.096;4.012;2022-08-19T10:12:38;10.02;;;4.40;;
53056;SDS011;38940;50.096;4.012;2022-08-19T10:15:05;10.27;;;4.00;;
53056;SDS011;38940;50.096;4.012;2022-08-19T10:17:31;11.52;;;4.18;;
53056;SDS011;38940;50.096;4.012;2022-08-19T10:19:58;9.20;;;4.45;;
53056;SDS011;38940;50.096;4.012;2022-08-19T10:22:24;5.80;;;3.35;;
53056;SDS011;38940;50.096;4.012;2022-08-19T10:24:50;5.15;;;2.75;;
53056;SDS011;38940;50.096;4.012;2022-08-19T10:27:17;4.75;;;2.63;;
53056;SDS011;38940;50.096;4.012;2022-08-19T10:29:43;3.65;;;2.58;;
53056;SDS011;38940;50.096;4.012;2022-08-19T10:32:09;5.47;;;2.58;;
53056;SDS011;38940;50.096;4.012;2022-08-19T10:34:36;7.35;;;2.92;;
53056;SDS011;38940;50.096;4.012;2022-08-19T10:37:03;12.77;;;2.85;;
53056;SDS011;38940;50.096;4.012;2022-08-19T10:39:33;5.93;;;2.65;;
53056;SDS011;38940;50.096;4.012;2022-08-19T10:42:03;4.55;;;2.42;;
53056;SDS011;38940;50.096;4.012;2022-08-19T10:44:30;6.07;;;2.53;;
53056;SDS011;38940;50.096;4.012;2022-08-19T10:46:57;5.60;;;2.40;;
53056;SDS011;38940;50.096;4.012;2022-08-19T10:49:23;5.82;;;2.88;;
53056;SDS011;38940;50.096;4.012;2022-08-19T10:51:49;4.22;;;2.40;;
53056;SDS011;38940;50.096;4.012;2022-08-19T10:54:34;4.93;;;2.35;;
53056;SDS011;38940;50.096;4.012;2022-08-19T10:57:19;4.68;;;2.53;;
53056;SDS011;38940;50.096;4.012;2022-08-19T10:59:45;4.13;;;2.10;;
53056;SDS011;38940;50.096;4.012;2022-08-19T11:02:12;6.68;;;2.28;;
53056;SDS011;38940;50.096;4.012;2022-08-19T11:04:38;5.82;;;2.65;;
53056;SDS011;38940;50.096;4.012;2022-08-19T11:07:05;3.40;;;1.80;;
53056;SDS011;38940;50.096;4.012;2022-08-19T11:09:36;3.78;;;2.00;;
53056;SDS011;38940;50.096;4.012;2022-08-19T11:12:03;3.10;;;1.95;;
53056;SDS011;38940;50.096;4.012;2022-08-19T11:14:33;3.65;;;1.98;;
53056;SDS011;38940;50.096;4.012;2022-08-19T11:16:59;4.00;;;1.70;;
53056;SDS011;38940;50.096;4.012;2022-08-19T11:19:25;1.70;;;1.60;;
53056;SDS011;38940;50.096;4.012;2022-08-19T11:21:51;3.85;;;1.73;;
53056;SDS011;38940;50.096;4.012;2022-08-19T11:24:23;1.27;;;1.17;;
53056;SDS011;38940;50.096;4.012;2022-08-19T11:26:50;1.67;;;1.50;;
53056;SDS011;38940;50.096;4.012;2022-08-19T11:29:18;2.85;;;1.40;;
53056;SDS011;38940;50.096;4.012;2022-08-19T11:31:46;2.10;;;1.40;;
53056;SDS011;38940;50.096;4.012;2022-08-19T11:34:14;1.35;;;1.25;;
53056;SDS011;38940;50.096;4.012;2022-08-19T11:36:42;3.30;;;1.67;;
53056;SDS011;38940;50.096;4.012;2022-08-19T11:39:10;1.35;;;1.20;;
53056;SDS011;38940;50.096;4.012;2022-08-19T11:41:36;1.33;;;1.00;;
53056;SDS011;38940;50.096;4.012;2022-08-19T11:44:03;3.85;;;1.48;;
53056;SDS011;38940;50.096;4.012;2022-08-19T11:46:29;1.45;;;1.27;;
53056;SDS011;38940;50.096;4.012;2022-08-19T11:48:56;2.13;;;1.30;;
53056;SDS011;38940;50.096;4.012;2022-08-19T11:51:23;11.43;;;1.48;;
53056;SDS011;38940;50.096;4.012;2022-08-19T11:53:53;1.38;;;1.17;;
53056;SDS011;38940;50.096;4.012;2022-08-19T11:56:19;2.97;;;1.50;;
53056;SDS011;38940;50.096;4.012;2022-08-19T11:59:12;1.20;;;1.10;;
53056;SDS011;38940;50.096;4.012;2022-08-19T12:07:44;1.75;;;1.15;;
53056;SDS011;38940;50.096;4.012;2022-08-19T12:10:14;4.35;;;1.25;;
53056;SDS011;38940;50.096;4.012;2022-08-19T12:12:40;1.60;;;1.20;;
53056;SDS011;38940;50.096;4.012;2022-08-19T12:15:14;2.03;;;1.40;;
53056;SDS011;38940;50.096;4.012;2022-08-19T12:18:09;7.70;;;2.05;;
53056;SDS011;38940;50.096;4.012;2022-08-19T12:20:36;1.20;;;1.10;;
53056;SDS011;38940;50.096;4.012;2022-08-19T12:23:03;2.58;;;1.33;;
53056;SDS011;38940;50.096;4.012;2022-08-19T12:25:29;2.25;;;1.35;;
53056;SDS011;38940;50.096;4.012;2022-08-19T12:27:56;1.38;;;1.27;;
53056;SDS011;38940;50.096;4.012;2022-08-19T12:30:23;2.28;;;1.20;;
53056;SDS011;38940;50.096;4.012;2022-08-19T12:32:49;1.60;;;1.38;;
53056;SDS011;38940;50.096;4.012;2022-08-19T12:35:16;5.20;;;2.28;;
53056;SDS011;38940;50.096;4.012;2022-08-19T12:37:45;4.40;;;1.42;;
53056;SDS011;38940;50.096;4.012;2022-08-19T12:40:11;1.80;;;1.42;;
53056;SDS011;38940;50.096;4.012;2022-08-19T12:42:38;4.10;;;1.75;;
53056;SDS011;38940;50.096;4.012;2022-08-19T12:45:09;2.08;;;1.83;;
53056;SDS011;38940;50.096;4.012;2022-08-19T12:47:35;5.72;;;1.50;;
53056;SDS011;38940;50.096;4.012;2022-08-19T12:50:02;2.95;;;1.85;;
53056;SDS011;38940;50.096;4.012;2022-08-19T12:52:31;4.72;;;1.45;;
53056;SDS011;38940;50.096;4.012;2022-08-19T12:54:57;4.68;;;1.23;;
53056;SDS011;38940;50.096;4.012;2022-08-19T12:57:24;1.45;;;1.35;;
53056;SDS011;38940;50.096;4.012;2022-08-19T12:59:54;2.15;;;1.25;;
53056;SDS011;38940;50.096;4.012;2022-08-19T13:02:20;2.05;;;1.20;;
53056;SDS011;38940;50.096;4.012;2022-08-19T13:04:47;6.35;;;1.48;;
53056;SDS011;38940;50.096;4.012;2022-08-19T13:07:13;2.60;;;1.42;;
53056;SDS011;38940;50.096;4.012;2022-08-19T13:09:39;1.73;;;1.40;;
53056;SDS011;38940;50.096;4.012;2022-08-19T13:12:08;2.75;;;1.58;;
53056;SDS011;38940;50.096;4.012;2022-08-19T13:14:38;2.67;;;1.60;;
53056;SDS011;38940;50.096;4.012;2022-08-19T13:17:05;3.13;;;1.45;;
53056;SDS011;38940;50.096;4.012;2022-08-19T13:19:31;1.23;;;1.00;;
53056;SDS011;38940;50.096;4.012;2022-08-19T13:21:57;1.40;;;1.20;;
53056;SDS011;38940;50.096;4.012;2022-08-19T13:24:23;3.38;;;1.23;;
53056;SDS011;38940;50.096;4.012;2022-08-19T13:26:50;2.10;;;1.27;;
53056;SDS011;38940;50.096;4.012;2022-08-19T13:29:16;4.10;;;1.48;;
53056;SDS011;38940;50.096;4.012;2022-08-19T13:32:14;2.08;;;1.63;;
53056;SDS011;38940;50.096;4.012;2022-08-19T13:34:59;4.65;;;1.98;;
53056;SDS011;38940;50.096;4.012;2022-08-19T13:37:25;1.30;;;1.10;;
53056;SDS011;38940;50.096;4.012;2022-08-19T13:40:12;1.42;;;1.27;;
53056;SDS011;38940;50.096;4.012;2022-08-19T13:42:40;2.67;;;1.60;;
53056;SDS011;38940;50.096;4.012;2022-08-19T13:45:06;1.63;;;1.38;;
53056;SDS011;38940;50.096;4.012;2022-08-19T13:47:34;2.88;;;1.30;;
53056;SDS011;38940;50.096;4.012;2022-08-19T13:50:02;1.42;;;1.17;;
53056;SDS011;38940;50.096;4.012;2022-08-19T13:52:28;1.33;;;1.13;;
53056;SDS011;38940;50.096;4.012;2022-08-19T13:54:54;1.15;;;1.00;;
53056;SDS011;38940;50.096;4.012;2022-08-19T13:57:21;4.38;;;1.10;;
53056;SDS011;38940;50.096;4.012;2022-08-19T13:59:47;2.50;;;1.25;;
53056;SDS011;38940;50.096;4.012;2022-08-19T14:02:13;2.10;;;1.30;;
53056;SDS011;38940;50.096;4.012;2022-08-19T14:04:39;1.67;;;1.00;;
53056;SDS011;38940;50.096;4.012;2022-08-19T14:07:05;5.75;;;1.58;;
53056;SDS011;38940;50.096;4.012;2022-08-19T14:09:31;1.00;;;0.90;;
53056;SDS011;38940;50.096;4.012;2022-08-19T14:11:57;1.27;;;1.17;;
53056;SDS011;38940;50.096;4.012;2022-08-19T14:14:23;7.82;;;1.10;;
53056;SDS011;38940;50.096;4.012;2022-08-19T14:16:49;5.68;;;1.35;;
53056;SDS011;38940;50.096;4.012;2022-08-19T14:19:16;2.67;;;1.65;;
53056;SDS011;38940;50.096;4.012;2022-08-19T14:21:42;1.02;;;0.90;;
53056;SDS011;38940;50.096;4.012;2022-08-19T14:24:08;1.02;;;0.93;;
53056;SDS011;38940;50.096;4.012;2022-08-19T14:26:34;1.20;;;1.00;;
53056;SDS011;38940;50.096;4.012;2022-08-19T14:29:00;1.88;;;1.30;;
53056;SDS011;38940;50.096;4.012;2022-08-19T14:31:26;1.23;;;1.10;;
53056;SDS011;38940;50.096;4.012;2022-08-19T14:33:53;1.65;;;1.25;;
53056;SDS011;38940;50.096;4.012;2022-08-19T14:36:19;2.10;;;1.40;;
53056;SDS011;38940;50.096;4.012;2022-08-19T14:38:46;1.35;;;1.15;;
53056;SDS011;38940;50.096;4.012;2022-08-19T14:41:13;3.22;;;1.30;;
53056;SDS011;38940;50.096;4.012;2022-08-19T14:43:41;1.10;;;1.00;;
53056;SDS011;38940;50.096;4.012;2022-08-19T14:46:08;2.70;;;1.33;;
53056;SDS011;38940;50.096;4.012;2022-08-19T14:48:36;0.98;;;0.77;;
53056;SDS011;38940;50.096;4.012;2022-08-19T14:51:03;2.92;;;1.63;;
53056;SDS011;38940;50.096;4.012;2022-08-19T14:53:29;1.85;;;0.90;;
53056;SDS011;38940;50.096;4.012;2022-08-19T14:59:08;1.67;;;1.20;;
53056;SDS011;38940;50.096;4.012;2022-08-19T15:01:34;1.42;;;1.17;;
53056;SDS011;38940;50.096;4.012;2022-08-19T15:04:03;1.10;;;1.00;;
53056;SDS011;38940;50.096;4.012;2022-08-19T15:06:29;1.05;;;0.98;;